Terminal Aerodrome Forecast
Issued by NWS Chicago, IL

Home | Current Version | Previous Version | Graphics & Text | Print | Product List | Glossary On
Versions: 1 2 3 4 5 6 7 8 9 10 11 12 13 14 15 16 17 18 19 20 21 22 23 24 25 26 27 28 29
000
FTUS43 KLOT 221900 AAB
TAFRFD
TAF AMD
KRFD 221957Z 2220/2318 11013KT 2SM RA BR OVC007
     FM230300 12013KT 2SM -DZRA BR OVC004
     FM230700 14011KT 1 1/2SM RA BR OVC004
     FM231200 19011KT 4SM BR OVC007
     FM231700 20014G20KT 6SM BR OVC010=

USA.gov is the U.S. government's official web portal to all federal, state and local government web resources and services.